createdAt,value
2022-12-23T00:00:57.125Z,96203.25
2022-12-23T00:06:01.741Z,96201.59
2022-12-23T00:11:06.585Z,96199.25
2022-12-23T00:16:13.540Z,96203.13
2022-12-23T00:21:18.348Z,96202.84
2022-12-23T00:26:24.276Z,96207.28
2022-12-23T00:31:29.380Z,96206.16
2022-12-23T00:36:33.054Z,96210.03
2022-12-23T00:41:54.150Z,96211.75
2022-12-23T00:46:59.496Z,96199.50
2022-12-23T00:52:04.405Z,96194.53
2022-12-23T00:57:08.135Z,96207.28
2022-12-23T01:02:31.029Z,96203.38
2022-12-23T01:07:34.839Z,96198.53
2022-12-23T01:12:38.690Z,96192.69
2022-12-23T01:17:43.749Z,96183.00
2022-12-23T01:22:47.365Z,96195.47
2022-12-23T01:27:51.079Z,96186.31
2022-12-23T01:32:56.049Z,96178.69
2022-12-23T01:37:59.887Z,96168.44
2022-12-23T01:43:03.483Z,96168.59
2022-12-23T01:48:11.799Z,96175.25
2022-12-23T01:53:19.805Z,96183.00
2022-12-23T01:58:29.254Z,96184.69
2022-12-23T02:03:43.675Z,96193.56
2022-12-23T02:09:04.660Z,96186.34
2022-12-23T02:14:39.873Z,96179.69
2022-12-23T02:20:14.025Z,96195.63
2022-12-23T02:25:49.284Z,96210.34
2022-12-23T02:31:02.520Z,96226.41
2022-12-23T02:36:25.216Z,96230.19
2022-12-23T02:41:35.591Z,96222.28
2022-12-23T02:46:46.927Z,96230.59
2022-12-23T02:51:55.755Z,96240.75
2022-12-23T02:57:02.474Z,96237.53
2022-12-23T03:02:07.616Z,96241.69
2022-12-23T03:07:19.489Z,96251.84
2022-12-23T03:12:34.584Z,96254.59
2022-12-23T03:17:53.600Z,96258.75
2022-12-23T03:23:05.128Z,96267.22
2022-12-23T03:28:12.879Z,96266.50
2022-12-23T03:33:23.640Z,96251.97
2022-12-23T03:38:28.654Z,96230.75
2022-12-23T03:43:40.519Z,96237.78
2022-12-23T03:48:53.271Z,96235.16
2022-12-23T03:54:02.744Z,96226.03
2022-12-23T03:59:12.621Z,96227.94
2022-12-23T04:04:26.207Z,96237.81
2022-12-23T04:09:30.237Z,96231.69
2022-12-23T04:14:37.699Z,96241.00
2022-12-23T04:19:42.709Z,96236.13
2022-12-23T04:24:46.305Z,96240.31
2022-12-23T04:29:49.974Z,96238.09
2022-12-23T04:34:54.945Z,96241.03
2022-12-23T04:39:58.440Z,96240.16
2022-12-23T04:45:01.945Z,96249.75
2022-12-23T04:50:08.780Z,96244.59
2022-12-23T04:55:12.724Z,96244.19
2022-12-23T05:00:17.303Z,96247.75
2022-12-23T05:05:22.265Z,96274.13
2022-12-23T05:10:25.873Z,96283.19
2022-12-23T05:15:29.495Z,96292.75
2022-12-23T05:20:34.423Z,96279.13
2022-12-23T05:25:39.606Z,96274.28
2022-12-23T05:30:43.572Z,96284.41
2022-12-23T05:35:48.417Z,96285.81
2022-12-23T05:40:52.325Z,96284.28
2022-12-23T05:45:56.251Z,96269.28
2022-12-23T05:51:01.308Z,96266.81
2022-12-23T05:56:06.353Z,96283.59
2022-12-23T06:01:09.967Z,96300.69
2022-12-23T06:06:15.386Z,96299.28
2022-12-23T06:11:19.049Z,96300.81
2022-12-23T06:16:22.730Z,96299.41
2022-12-23T06:21:27.859Z,96318.03
2022-12-23T06:26:31.499Z,96334.41
2022-12-23T06:31:35.176Z,96336.91
2022-12-23T06:36:40.268Z,96335.94
2022-12-23T06:41:43.866Z,96347.72
2022-12-23T06:46:47.501Z,96346.06
2022-12-23T06:51:52.659Z,96347.75
2022-12-23T06:56:56.556Z,96344.69
2022-12-23T07:02:00.574Z,96353.84
2022-12-23T07:07:06.775Z,96363.44
2022-12-23T07:12:11.043Z,96371.19
2022-12-23T07:17:14.718Z,96377.59
2022-12-23T07:22:20.488Z,96387.72
2022-12-23T07:27:24.448Z,96392.72
2022-12-23T07:32:28.370Z,96390.78
2022-12-23T07:37:33.640Z,96408.56
2022-12-23T07:42:46.832Z,96406.75
2022-12-23T07:47:55.514Z,96409.91
2022-12-23T07:53:00.761Z,96411.47
2022-12-23T07:58:04.435Z,96392.00
2022-12-23T08:03:09.348Z,96385.06
2022-12-23T08:08:14.566Z,96390.91
2022-12-23T08:13:18.887Z,96397.56
2022-12-23T08:18:23.254Z,96406.03
2022-12-23T08:23:29.914Z,96393.97
2022-12-23T08:28:35.124Z,96408.59
2022-12-23T08:33:40.664Z,96415.94
2022-12-23T08:38:46.611Z,96427.34
2022-12-23T08:43:50.482Z,96455.28
2022-12-23T08:48:54.371Z,96459.84
2022-12-23T08:54:01.677Z,96472.72
2022-12-23T08:59:05.698Z,96471.09
2022-12-23T09:04:09.377Z,96479.97
2022-12-23T09:09:15.858Z,96479.94
2022-12-23T09:14:19.554Z,96489.34
2022-12-23T09:19:23.312Z,96476.31
2022-12-23T09:24:28.369Z,96459.59
2022-12-23T09:29:32.042Z,96464.31
2022-12-23T09:34:36.880Z,96451.38
2022-12-23T09:39:42.053Z,96465.00
2022-12-23T09:45:09.977Z,96462.97
2022-12-23T09:50:22.596Z,96455.34
2022-12-23T09:55:35.357Z,96455.84
2022-12-23T10:00:44.029Z,96452.88
2022-12-23T10:05:56.298Z,96451.88
2022-12-23T10:11:06.654Z,96456.06
2022-12-23T10:16:15.880Z,96457.09
2022-12-23T10:21:27.579Z,96458.06
2022-12-23T10:26:35.814Z,96467.22
2022-12-23T10:31:49.935Z,96466.25
2022-12-23T10:37:00.792Z,96476.84
2022-12-23T10:42:16.119Z,96470.66
2022-12-23T10:47:32.068Z,96464.22
2022-12-23T10:52:38.662Z,96462.97
2022-12-23T10:57:43.686Z,96466.16
2022-12-23T11:02:59.142Z,96455.59
2022-12-23T11:08:03.638Z,96444.38
2022-12-23T11:13:08.573Z,96436.56
2022-12-23T11:18:20.416Z,96446.59
2022-12-23T11:23:26.889Z,96443.19
2022-12-23T11:28:33.920Z,96433.47
2022-12-23T11:33:40.284Z,96421.28
2022-12-23T11:38:51.824Z,96428.38
2022-12-23T11:44:01.159Z,96429.66
2022-12-23T11:49:20.269Z,96410.09
2022-12-23T11:54:23.961Z,96404.03
2022-12-23T11:59:35.357Z,96401.22
2022-12-23T12:04:39.744Z,96394.06
2022-12-23T12:09:45.865Z,96388.19
2022-12-23T12:14:55.071Z,96388.41
2022-12-23T12:20:04.983Z,96378.47
2022-12-23T12:25:18.656Z,96350.38
2022-12-23T12:30:31.804Z,96341.63
2022-12-23T12:35:43.069Z,96335.41
2022-12-23T12:40:51.142Z,96342.66
2022-12-23T12:46:07.614Z,96334.91
2022-12-23T12:51:20.112Z,96336.03
2022-12-23T12:56:29.266Z,96333.88
2022-12-23T13:01:50.834Z,96327.09
2022-12-23T13:07:02.622Z,96317.78
2022-12-23T13:12:15.807Z,96307.13
2022-12-23T13:17:25.975Z,96300.38
2022-12-23T13:22:33.401Z,96297.03
2022-12-23T13:27:45.439Z,96307.06
2022-12-23T13:33:16.830Z,96292.38
2022-12-23T13:38:34.226Z,96287.97
2022-12-23T13:43:44.828Z,96292.25
2022-12-23T13:48:55.408Z,96289.44
2022-12-23T13:54:05.259Z,96262.44
2022-12-23T13:59:11.616Z,96250.09
2022-12-23T14:04:33.272Z,96248.91
2022-12-23T14:09:41.012Z,96240.44
2022-12-23T14:15:00.171Z,96238.38
2022-12-23T14:20:19.135Z,96232.31
2022-12-23T14:25:54.811Z,96212.44
2022-12-23T14:30:59.481Z,96192.72
2022-12-23T14:36:24.669Z,96180.75
2022-12-23T14:41:39.019Z,96181.53
2022-12-23T14:46:58.737Z,96182.13
2022-12-23T14:52:39.343Z,96166.81
2022-12-23T14:57:47.033Z,96169.25
2022-12-23T15:02:56.654Z,96169.75
2022-12-23T15:08:00.409Z,96183.72
2022-12-23T15:13:06.271Z,96182.41
2022-12-23T15:18:14.544Z,96191.66
2022-12-23T15:23:18.680Z,96194.28
2022-12-23T15:28:31.916Z,96202.50
2022-12-23T15:34:03.056Z,96197.78
2022-12-23T15:39:02.548Z,96185.13
2022-12-23T15:44:14.808Z,96174.47
2022-12-23T15:49:20.784Z,96176.03
2022-12-23T15:54:28.858Z,96140.22
2022-12-23T15:59:37.420Z,96140.19
2022-12-23T16:04:41.130Z,96112.53
2022-12-23T16:09:45.087Z,96112.31
2022-12-23T16:14:55.376Z,96113.53
2022-12-23T16:20:22.207Z,96111.91
2022-12-23T16:25:28.098Z,96109.81
2022-12-23T16:30:35.979Z,96105.97
2022-12-23T16:35:41.640Z,96110.38
2022-12-23T16:40:47.054Z,96108.06
2022-12-23T16:45:55.479Z,96095.88
2022-12-23T16:50:59.425Z,96079.19
2022-12-23T16:56:03.930Z,96079.97
2022-12-23T17:01:14.912Z,96083.00
2022-12-23T17:06:19.510Z,96062.75
2022-12-23T17:11:26.622Z,96065.97
2022-12-23T17:16:31.904Z,96053.09
2022-12-23T17:21:37.912Z,96038.03
2022-12-23T17:26:41.618Z,96025.22
2022-12-23T17:31:48.089Z,96011.50
2022-12-23T17:36:52.707Z,95993.41
2022-12-23T17:41:56.647Z,95986.16
2022-12-23T17:47:02.236Z,95971.03
2022-12-23T17:52:07.427Z,95959.13
2022-12-23T17:57:18.185Z,95955.53
2022-12-23T18:02:28.104Z,95978.66
2022-12-23T18:07:31.922Z,95993.53
2022-12-23T18:12:37.736Z,95987.47
2022-12-23T18:17:42.976Z,95988.44
2022-12-23T18:22:48.093Z,96002.91
2022-12-23T18:27:52.501Z,96009.00
2022-12-23T18:32:57.415Z,95991.03
2022-12-23T18:38:01.698Z,95976.16
2022-12-23T18:43:05.997Z,95986.06
2022-12-23T18:48:11.861Z,95973.09
2022-12-23T18:53:23.885Z,95971.28
2022-12-23T18:58:28.381Z,95978.69
2022-12-23T19:03:33.535Z,95986.91
2022-12-23T19:08:38.123Z,95990.06
2022-12-23T19:13:41.942Z,95985.19
2022-12-23T19:18:48.883Z,95969.88
2022-12-23T19:23:52.607Z,95988.78
2022-12-23T19:28:56.229Z,95996.69
2022-12-23T19:34:02.258Z,95998.66
2022-12-23T19:39:06.092Z,96003.53
2022-12-23T19:44:10.013Z,96015.00
2022-12-23T19:49:19.962Z,96018.44
2022-12-23T19:54:24.070Z,96022.63
2022-12-23T19:59:27.724Z,96028.56
2022-12-23T20:04:33.072Z,96034.06
2022-12-23T20:09:37.262Z,96042.59
2022-12-23T20:14:41.848Z,96051.31
2022-12-23T20:19:47.011Z,96052.47
2022-12-23T20:24:51.073Z,96071.03
2022-12-23T20:29:55.019Z,96070.78
2022-12-23T20:35:00.914Z,96076.31
2022-12-23T20:40:05.448Z,96076.16
2022-12-23T20:45:10.044Z,96069.38
2022-12-23T20:50:15.546Z,96072.03
2022-12-23T20:55:19.409Z,96086.06
2022-12-23T21:00:23.316Z,96083.47
2022-12-23T21:05:29.710Z,96083.00
2022-12-23T21:10:35.781Z,96083.94
2022-12-23T21:15:39.560Z,96103.28
2022-12-23T21:20:44.436Z,96124.00
2022-12-23T21:25:48.070Z,96127.56
2022-12-23T21:30:52.496Z,96139.44
2022-12-23T21:35:57.918Z,96165.56
2022-12-23T21:41:03.028Z,96185.38
2022-12-23T21:46:09.400Z,96201.91
2022-12-23T21:51:16.177Z,96210.91
2022-12-23T21:56:21.912Z,96219.00
2022-12-23T22:01:26.061Z,96216.34
2022-12-23T22:06:33.505Z,96211.66
2022-12-23T22:11:38.610Z,96232.00
2022-12-23T22:16:42.368Z,96212.19
2022-12-23T22:21:48.013Z,96236.22
2022-12-23T22:26:51.698Z,96238.19
2022-12-23T22:31:56.840Z,96234.13
2022-12-23T22:37:02.193Z,96230.63
2022-12-23T22:42:06.354Z,96232.53
2022-12-23T22:47:09.799Z,96234.03
2022-12-23T22:52:14.956Z,96230.47
2022-12-23T22:57:18.681Z,96255.63
2022-12-23T23:02:22.534Z,96239.53
2022-12-23T23:12:40.909Z,96244.34
2022-12-23T23:17:44.457Z,96256.91
2022-12-23T23:22:47.996Z,96233.41
2022-12-23T23:27:53.030Z,96238.25
2022-12-23T23:32:56.493Z,96253.91
2022-12-23T23:37:59.996Z,96265.06
2022-12-23T23:43:06.110Z,96270.47
2022-12-23T23:48:11.405Z,96283.56
2022-12-23T23:53:16.586Z,96289.69
2022-12-23T23:58:22.371Z,96294.22
